Time;durP1;ratioP1;P1;durP2;ratioP2;P2;SDS_P1;SDS_P2;PMS_P1;PMS_P2;Temp;Humidity;BMP_temperature;BMP_pressure;BME280_temperature;BME280_humidity;BME280_pressure;Samples;Min_cycle;Max_cycle;Signal;HPM_P1;HPM_P2
2023/03/21 00:01:50;;;;;;;15.48;8.90;;;;;;;12.67;77.86;101678.84;5082605;28;20059;-42
2023/03/21 00:04:15;;;;;;;17.98;8.90;;;;;;;12.87;77.04;101674.81;5078728;28;20036;-43
2023/03/21 00:06:40;;;;;;;16.98;9.02;;;;;;;12.78;77.52;101669.44;5081585;28;20110;-40
2023/03/21 00:09:06;;;;;;;17.60;9.20;;;;;;;12.67;77.79;101668.38;5078902;28;20024;-43
2023/03/21 00:11:31;;;;;;;17.33;8.85;;;;;;;12.92;77.31;101674.06;5081986;28;20130;-44
2023/03/21 00:14:01;;;;;;;14.30;9.02;;;;;;;13.18;75.81;101668.34;5085606;28;20138;-40
2023/03/21 00:16:29;;;;;;;16.38;9.15;;;;;;;13.05;76.63;101667.28;5080924;28;20089;-40
2023/03/21 00:18:56;;;;;;;16.70;8.85;;;;;;;13.21;75.61;101666.69;5085809;28;20189;-40
2023/03/21 00:21:27;;;;;;;15.40;8.68;;;;;;;13.34;75.43;101667.75;5080543;28;20036;-42
2023/03/21 00:23:54;;;;;;;17.88;9.65;;;;;;;13.04;76.64;101667.25;5082691;28;20036;-41
2023/03/21 00:26:21;;;;;;;19.38;9.43;;;;;;;12.86;77.09;101663.50;5078972;28;20028;-43
2023/03/21 00:28:46;;;;;;;17.83;9.68;;;;;;;12.94;76.61;101668.81;5082543;28;20251;-41
2023/03/21 00:31:12;;;;;;;17.98;10.23;;;;;;;12.82;76.58;101671.25;5078680;28;20028;-41
2023/03/21 00:33:40;;;;;;;19.60;9.90;;;;;;;13.02;76.65;101655.00;5083244;28;20031;-41
2023/03/21 00:36:07;;;;;;;16.40;9.68;;;;;;;13.10;76.69;101659.50;5077406;28;20115;-42
2023/03/21 00:38:34;;;;;;;16.27;9.68;;;;;;;12.88;77.30;101667.00;5081139;28;20035;-41
2023/03/21 00:40:59;;;;;;;14.77;9.57;;;;;;;13.30;75.93;101660.69;5080932;28;20107;-41
2023/03/21 00:43:29;;;;;;;19.48;10.25;;;;;;;13.01;76.62;101663.72;5077711;28;20044;-41
2023/03/21 00:45:55;;;;;;;18.45;10.27;;;;;;;12.68;78.08;101657.06;5065057;28;20036;-40
2023/03/21 00:48:20;;;;;;;17.20;10.20;;;;;;;12.58;78.46;101656.88;5078399;28;20030;-41
2023/03/21 00:50:46;;;;;;;21.15;10.25;;;;;;;13.11;76.77;101648.16;5082421;28;20131;-41
2023/03/21 00:53:13;;;;;;;16.08;9.70;;;;;;;12.91;77.47;101648.75;5078402;28;20039;-41
2023/03/21 00:55:38;;;;;;;22.52;11.10;;;;;;;13.05;77.00;101646.34;5063797;28;20397;-41
2023/03/21 00:58:05;;;;;;;20.90;10.55;;;;;;;12.69;78.04;101643.97;5082209;28;20032;-41
2023/03/21 01:00:31;;;;;;;19.08;10.35;;;;;;;12.82;77.51;101642.44;5078627;28;20122;-40
2023/03/21 01:02:57;;;;;;;19.30;10.65;;;;;;;12.74;77.84;101638.84;5082140;28;20036;-41
2023/03/21 01:08:14;;;;;;;21.33;10.85;;;;;;;12.97;77.16;101622.66;5078476;28;20176;-42
2023/03/21 01:10:43;;;;;;;20.13;11.02;;;;;;;12.78;77.15;101624.94;5081293;28;20024;-44
2023/03/21 01:13:10;;;;;;;17.63;10.35;;;;;;;13.06;76.99;101624.50;5078182;28;20040;-40
2023/03/21 01:15:36;;;;;;;18.25;10.43;;;;;;;12.82;78.07;101622.41;5082016;28;20032;-40
2023/03/21 01:18:02;;;;;;;20.58;10.95;;;;;;;12.97;77.39;101619.16;5064642;28;20095;-41
2023/03/21 01:20:28;;;;;;;20.08;11.13;;;;;;;12.93;77.48;101615.59;5078085;28;20119;-41
2023/03/21 01:22:54;;;;;;;18.80;9.93;;;;;;;13.34;75.69;101611.03;5082217;28;20036;-40
2023/03/21 01:25:19;;;;;;;21.02;11.05;;;;;;;13.06;76.28;101607.94;5078525;28;20115;-41
2023/03/21 01:27:45;;;;;;;19.80;10.38;;;;;;;13.09;76.09;101606.25;5082228;28;20032;-40
2023/03/21 01:30:11;;;;;;;21.20;11.07;;;;;;;12.82;76.87;101597.97;5078140;28;20050;-44
2023/03/21 01:32:36;;;;;;;20.15;10.45;;;;;;;13.09;76.17;101600.13;5083926;28;20110;-40
2023/03/21 01:35:02;;;;;;;18.65;10.27;;;;;;;13.04;76.57;101602.69;5083581;28;20058;-40
2023/03/21 01:37:28;;;;;;;19.85;10.63;;;;;;;12.96;76.62;101596.44;5079784;28;20394;-39
2023/03/21 01:39:53;;;;;;;21.23;10.48;;;;;;;13.29;75.51;101596.09;5064424;28;20046;-40
2023/03/21 01:42:19;;;;;;;18.83;10.23;;;;;;;12.99;76.45;101591.28;5077649;28;20035;-40
2023/03/21 01:44:52;;;;;;;20.17;10.25;;;;;;;12.79;76.51;101592.69;5077827;28;20032;-43
2023/03/21 01:47:17;;;;;;;18.48;10.05;;;;;;;13.15;76.22;101598.53;5075682;28;20036;-40
2023/03/21 01:49:48;;;;;;;23.80;10.20;;;;;;;12.95;76.38;101599.91;5084428;28;20039;-42
2023/03/21 01:52:19;;;;;;;20.25;10.18;;;;;;;13.16;75.07;101595.06;5078960;28;20048;-41
2023/03/21 01:54:46;;;;;;;23.02;10.88;;;;;;;12.91;76.08;101599.00;5074983;28;20147;-40
2023/03/21 01:57:20;;;;;;;21.08;10.35;;;;;;;12.79;76.73;101596.19;5088549;28;20412;-41
2023/03/21 01:59:49;;;;;;;20.63;10.63;;;;;;;13.12;76.04;101585.38;5092412;28;20032;-42
2023/03/21 02:02:22;;;;;;;18.85;10.43;;;;;;;12.86;76.00;101584.09;5089331;28;20085;-42
2023/03/21 02:04:54;;;;;;;19.35;10.38;;;;;;;12.97;75.83;101580.78;5092671;28;20032;-40
2023/03/21 02:07:28;;;;;;;19.25;10.80;;;;;;;12.79;75.90;101584.84;5071712;28;20086;-40
2023/03/21 02:09:55;;;;;;;18.73;10.55;;;;;;;13.17;75.38;101577.59;5075779;28;20032;-40
2023/03/21 02:12:20;;;;;;;23.58;10.93;;;;;;;13.17;74.90;101582.84;5085316;28;20035;-40
2023/03/21 02:14:48;;;;;;;20.58;11.05;;;;;;;12.83;76.16;101578.78;5089273;28;20036;-40
2023/03/21 02:17:30;;;;;;;18.70;10.25;;;;;;;12.81;76.73;101577.88;5086393;28;20028;-39
2023/03/21 02:20:14;;;;;;;19.30;9.85;;;;;;;12.79;76.20;101574.38;5071062;28;20040;-40
2023/03/21 02:22:51;;;;;;;18.95;9.98;;;;;;;13.12;75.52;101566.13;5086536;28;20035;-40
2023/03/21 02:25:32;;;;;;;22.13;10.55;;;;;;;13.09;75.70;101566.97;5081301;28;20063;-42
2023/03/21 02:28:08;;;;;;;20.55;10.45;;;;;;;12.95;76.36;101553.69;5080688;28;20046;-41
2023/03/21 02:30:47;;;;;;;20.88;10.90;;;;;;;13.12;75.32;101551.34;5084598;28;20555;-40
2023/03/21 02:33:47;;;;;;;19.48;11.35;;;;;;;13.27;74.81;101548.94;5081961;28;20081;-40
2023/03/21 02:36:34;;;;;;;19.42;11.35;;;;;;;13.29;74.71;101549.84;5083151;28;20066;-40
2023/03/21 02:39:12;;;;;;;18.75;11.70;;;;;;;13.20;74.83;101544.47;5087362;28;20064;-40
2023/03/21 02:41:53;;;;;;;21.30;11.77;;;;;;;12.96;75.56;101541.50;5083850;28;20048;-40
2023/03/21 02:44:31;;;;;;;17.55;10.77;;;;;;;13.24;74.86;101541.03;5083012;28;20032;-41
2023/03/21 02:47:03;;;;;;;19.35;10.40;;;;;;;13.02;75.23;101542.47;5087035;28;20115;-41
2023/03/21 02:50:02;;;;;;;19.65;10.65;;;;;;;12.84;75.54;101534.34;5084088;28;20039;-41
2023/03/21 02:52:32;;;;;;;17.70;10.13;;;;;;;13.20;74.59;101531.38;5055419;28;23630;-40
2023/03/21 02:54:58;;;;;;;19.70;9.77;;;;;;;13.19;74.70;101531.34;5092308;28;20042;-39
2023/03/21 02:57:24;;;;;;;19.10;9.20;;;;;;;13.24;74.70;101533.16;5088719;28;20123;-40
2023/03/21 02:59:50;;;;;;;15.85;9.15;;;;;;;13.02;75.13;101526.75;5091625;28;20047;-41
2023/03/21 03:02:21;;;;;;;18.48;9.02;;;;;;;13.07;75.34;101532.03;5086519;28;20097;-41
2023/03/21 03:04:47;;;;;;;16.75;8.40;;;;;;;13.04;74.97;101524.16;5087474;28;20035;-43
2023/03/21 03:07:35;;;;;;;20.90;8.23;;;;;;;12.95;74.90;101526.63;5087058;28;20361;-41
2023/03/21 03:10:42;;;;;;;14.90;8.05;;;;;;;13.04;75.14;101523.28;5085442;28;20048;-41
2023/03/21 03:13:23;;;;;;;15.38;7.88;;;;;;;13.17;74.56;101525.25;5065902;28;20342;-40
2023/03/21 03:15:58;;;;;;;13.75;7.63;;;;;;;13.04;74.84;101529.41;5079195;28;20395;-40
2023/03/21 03:18:51;;;;;;;15.73;7.63;;;;;;;13.11;74.26;101526.00;5080870;28;20036;-40
2023/03/21 03:22:15;;;;;;;15.10;7.07;;;;;;;13.06;74.36;101525.03;5078226;28;20103;-40
2023/03/21 03:25:01;;;;;;;12.40;6.75;;;;;;;13.18;73.61;101527.84;4976904;28;20500;-41
2023/03/21 03:27:31;;;;;;;13.73;7.20;;;;;;;13.19;73.72;101526.13;4994033;28;20077;-42
2023/03/21 03:30:00;;;;;;;15.20;6.88;;;;;;;13.03;74.54;101519.78;5054701;28;20090;-39
2023/03/21 03:32:34;;;;;;;14.48;7.03;;;;;;;13.10;74.16;101523.38;5078848;28;20494;-39
2023/03/21 03:35:00;;;;;;;14.65;6.78;;;;;;;13.11;74.22;101519.91;5082295;28;20052;-40
2023/03/21 03:37:31;;;;;;;15.35;6.82;;;;;;;13.23;73.42;101520.09;5079379;28;20030;-40
2023/03/21 03:40:15;;;;;;;14.63;6.90;;;;;;;13.22;73.57;101519.22;5082808;28;20040;-40
2023/03/21 03:42:47;;;;;;;15.20;6.80;;;;;;;12.89;74.45;101514.34;5078731;28;20036;-41
2023/03/21 03:45:13;;;;;;;14.23;6.75;;;;;;;13.15;73.94;101516.47;5079136;28;20491;-46
2023/03/21 03:47:52;;;;;;;13.98;7.10;;;;;;;13.31;73.02;101508.84;5083459;28;20032;-41
2023/03/21 03:50:48;;;;;;;16.13;7.32;;;;;;;13.38;72.61;101507.16;5079185;28;20396;-40
2023/03/21 03:53:22;;;;;;;12.60;6.75;;;;;;;13.42;72.47;101506.34;5078921;28;20039;-40
2023/03/21 03:55:50;;;;;;;14.32;7.35;;;;;;;13.48;72.49;101508.19;5083719;28;20191;-41
2023/03/21 03:58:20;;;;;;;16.23;8.73;;;;;;;13.25;72.79;101510.50;5078651;28;20027;-41
2023/03/21 04:00:46;;;;;;;15.15;8.77;;;;;;;13.42;72.74;101502.88;5083499;28;20135;-40
2023/03/21 04:03:11;;;;;;;17.60;9.65;;;;;;;13.41;72.51;101504.59;5080463;28;20028;-40
2023/03/21 04:05:36;;;;;;;18.13;9.52;;;;;;;13.51;72.20;101503.84;5086451;28;20039;-40
2023/03/21 04:08:02;;;;;;;20.00;9.80;;;;;;;13.52;72.23;101502.09;5082997;28;20248;-41
2023/03/21 04:10:27;;;;;;;23.58;11.02;;;;;;;13.21;73.08;101499.13;5081529;28;20032;-39
2023/03/21 04:12:53;;;;;;;19.70;10.68;;;;;;;13.38;72.85;101507.16;5083645;28;20172;-42
2023/03/21 04:15:19;;;;;;;20.27;10.43;;;;;;;13.47;72.29;101498.56;5078320;28;20055;-41
2023/03/21 04:17:45;;;;;;;21.42;10.73;;;;;;;13.34;72.35;101493.16;5081468;28;20036;-39
2023/03/21 04:20:10;;;;;;;24.55;11.30;;;;;;;13.38;72.33;101494.06;5078093;28;20039;-43
2023/03/21 04:22:36;;;;;;;20.45;10.85;;;;;;;13.34;72.48;101487.06;5082142;28;20046;-43
2023/03/21 04:25:04;;;;;;;19.98;10.85;;;;;;;13.05;73.34;101488.41;5082241;28;20035;-41
2023/03/21 04:27:31;;;;;;;20.08;10.80;;;;;;;13.23;72.68;101489.53;5077779;28;20099;-40
2023/03/21 04:29:56;;;;;;;21.02;10.63;;;;;;;13.20;72.84;101480.75;5081410;28;20173;-39
2023/03/21 04:32:24;;;;;;;20.92;10.30;;;;;;;13.07;73.01;101482.31;5060820;28;20036;-41
2023/03/21 04:34:52;;;;;;;20.17;10.40;;;;;;;13.12;72.92;101490.22;5083315;28;20035;-43
2023/03/21 04:37:20;;;;;;;20.80;10.27;;;;;;;13.20;72.79;101476.41;5077941;28;20123;-42
2023/03/21 04:39:46;;;;;;;20.38;9.82;;;;;;;13.24;72.50;101477.31;5082043;28;20036;-43
2023/03/21 04:42:13;;;;;;;21.38;10.70;;;;;;;13.03;73.01;101483.13;5063568;28;20047;-41
2023/03/21 04:44:41;;;;;;;19.33;9.95;;;;;;;13.11;73.00;101478.00;5086621;28;20039;-40
2023/03/21 04:47:07;;;;;;;19.55;10.52;;;;;;;13.08;72.82;101478.84;5082444;28;20024;-41
2023/03/21 04:49:32;;;;;;;20.05;10.30;;;;;;;13.15;72.90;101483.31;5086404;28;20043;-40
2023/03/21 04:51:58;;;;;;;20.85;10.75;;;;;;;13.24;72.62;101472.94;5083646;28;20046;-40
2023/03/21 04:54:23;;;;;;;19.42;10.20;;;;;;;13.31;72.31;101468.66;5078845;28;20028;-40
2023/03/21 04:56:50;;;;;;;21.25;10.52;;;;;;;13.31;72.31;101466.94;5081545;28;20355;-42
2023/03/21 04:59:17;;;;;;;23.50;10.65;;;;;;;13.23;72.49;101454.63;5078399;28;20067;-40
2023/03/21 05:01:43;;;;;;;21.40;11.05;;;;;;;13.30;72.27;101459.06;5083725;28;20046;-41
2023/03/21 05:04:10;;;;;;;22.25;10.80;;;;;;;13.31;72.11;101456.44;5081917;28;20028;-40
2023/03/21 05:06:35;;;;;;;21.02;10.35;;;;;;;13.34;71.98;101455.63;5066906;28;20091;-41
2023/03/21 05:09:07;;;;;;;22.10;10.75;;;;;;;13.30;71.94;101454.69;5065176;28;20078;-43
2023/03/21 05:11:37;;;;;;;19.50;10.55;;;;;;;13.38;71.85;101457.41;5078804;28;20085;-41
2023/03/21 05:14:08;;;;;;;22.45;10.90;;;;;;;13.40;71.82;101453.97;5081630;28;20489;-40
2023/03/21 05:16:35;;;;;;;22.50;10.80;;;;;;;13.33;71.56;101456.47;5070659;28;20039;-41
2023/03/21 05:19:04;;;;;;;20.20;10.43;;;;;;;13.32;71.82;101459.97;5064258;28;20060;-40
2023/03/21 05:21:40;;;;;;;19.92;10.70;;;;;;;13.26;71.64;101458.16;5078576;28;20108;-40
2023/03/21 05:24:19;;;;;;;21.48;11.30;;;;;;;13.36;71.70;101465.25;5077615;28;20024;-41
2023/03/21 05:26:54;;;;;;;21.30;10.77;;;;;;;13.40;71.65;101458.31;5079485;28;20040;-40
2023/03/21 05:29:20;;;;;;;19.98;10.55;;;;;;;13.37;71.62;101459.16;5076273;28;20116;-40
2023/03/21 05:31:45;;;;;;;22.13;11.07;;;;;;;13.25;71.72;101453.75;5080187;28;20127;-41
2023/03/21 05:34:12;;;;;;;21.90;10.95;;;;;;;13.35;71.44;101462.63;5070837;28;20030;-41
2023/03/21 05:36:37;;;;;;;20.75;11.23;;;;;;;13.29;71.54;101457.31;5071690;28;20047;-41
2023/03/21 05:39:03;;;;;;;23.42;10.90;;;;;;;13.16;71.49;101458.91;5080770;28;20032;-39
2023/03/21 05:41:29;;;;;;;21.30;11.18;;;;;;;13.34;71.26;101458.25;5076662;28;20100;-39
2023/03/21 05:43:54;;;;;;;21.35;10.82;;;;;;;13.35;71.16;101458.28;5080369;28;20032;-39
2023/03/21 05:46:19;;;;;;;23.50;11.57;;;;;;;13.41;71.54;101460.06;5076841;28;20047;-40
2023/03/21 05:48:45;;;;;;;23.17;11.57;;;;;;;13.37;70.96;101453.03;5080877;28;20092;-39
2023/03/21 05:51:10;;;;;;;25.83;11.63;;;;;;;13.26;70.95;101454.66;5075452;28;20051;-42
2023/03/21 05:53:35;;;;;;;23.13;11.38;;;;;;;13.28;70.88;101455.56;5081475;28;20521;-39
2023/03/21 05:56:01;;;;;;;22.13;11.90;;;;;;;13.36;70.93;101454.75;5080529;28;20036;-40
2023/03/21 05:58:26;;;;;;;19.60;11.07;;;;;;;13.38;70.78;101457.41;5076850;28;20090;-39
2023/03/21 06:00:51;;;;;;;19.90;11.38;;;;;;;13.32;70.95;101454.72;5080651;28;20032;-40
2023/03/21 06:03:17;;;;;;;23.70;11.98;;;;;;;13.33;70.70;101461.72;5076284;28;20031;-40
2023/03/21 06:05:42;;;;;;;20.67;11.38;;;;;;;13.33;71.09;101461.72;5080739;28;20036;-40
2023/03/21 06:08:08;;;;;;;18.95;11.68;;;;;;;13.20;71.00;101458.06;5077408;28;20067;-40
2023/03/21 06:10:33;;;;;;;19.27;10.98;;;;;;;13.38;70.78;101454.78;5080388;28;20109;-40
2023/03/21 06:12:58;;;;;;;22.10;12.02;;;;;;;13.37;70.87;101463.50;5078458;28;20043;-39
2023/03/21 06:15:25;;;;;;;20.90;11.48;;;;;;;13.41;70.84;101462.69;5076870;28;21113;-40
2023/03/21 06:17:50;;;;;;;19.98;11.00;;;;;;;13.51;70.32;101458.41;5062543;28;20490;-40
2023/03/21 06:20:16;;;;;;;19.15;10.93;;;;;;;13.51;70.47;101469.78;5076270;28;20039;-40
2023/03/21 06:22:41;;;;;;;20.42;11.05;;;;;;;13.26;70.93;101459.88;5079696;28;20562;-40
2023/03/21 06:25:08;;;;;;;22.70;11.07;;;;;;;13.40;70.70;101460.94;5076603;28;20111;-40
2023/03/21 06:27:34;;;;;;;20.48;11.02;;;;;;;13.46;70.63;101454.88;5062145;28;20056;-40
2023/03/21 06:29:59;;;;;;;20.38;10.52;;;;;;;13.40;70.57;101459.19;5080124;28;20398;-41
2023/03/21 06:32:25;;;;;;;20.05;10.57;;;;;;;13.45;70.73;101459.22;5076680;28;20037;-39
2023/03/21 06:34:51;;;;;;;20.25;10.25;;;;;;;13.40;70.85;101460.94;5081141;28;20051;-39
2023/03/21 06:37:17;;;;;;;18.58;10.45;;;;;;;13.28;71.35;101460.78;5076996;28;20032;-39
2023/03/21 06:39:42;;;;;;;19.13;9.68;;;;;;;13.43;70.99;101458.31;5082224;28;20088;-39
2023/03/21 06:42:07;;;;;;;20.38;9.95;;;;;;;13.37;71.26;101460.88;5081631;28;20032;-40
2023/03/21 06:44:33;;;;;;;21.50;10.20;;;;;;;13.42;71.20;101458.34;5084427;28;20396;-38
2023/03/21 06:46:58;;;;;;;18.45;9.90;;;;;;;13.38;71.40;101458.28;5084061;28;20059;-39
2023/03/21 06:49:25;;;;;;;16.08;9.27;;;;;;;13.38;71.27;101460.91;5080293;28;22085;-41
2023/03/21 06:51:50;;;;;;;17.25;8.48;;;;;;;13.35;71.48;101452.16;5084658;28;20044;-43
2023/03/21 06:54:17;;;;;;;16.13;8.23;;;;;;;13.39;71.20;101439.09;5082444;28;20044;-42
2023/03/21 06:56:43;;;;;;;19.63;8.55;;;;;;;13.28;71.64;101442.47;5086512;28;20115;-40
2023/03/21 06:59:08;;;;;;;16.83;8.73;;;;;;;13.33;71.57;101436.41;5083365;28;20056;-39
2023/03/21 07:01:35;;;;;;;17.90;8.70;;;;;;;13.32;71.58;101431.16;5086222;28;20101;-40
2023/03/21 07:04:00;;;;;;;14.85;7.72;;;;;;;13.33;71.45;101425.94;5085817;28;20108;-39
2023/03/21 07:06:26;;;;;;;16.80;8.25;;;;;;;13.35;71.33;101423.34;5080811;28;20548;-39
2023/03/21 07:08:53;;;;;;;18.15;8.18;;;;;;;13.39;71.36;101426.00;5083663;28;20028;-40
2023/03/21 07:11:19;;;;;;;16.25;8.38;;;;;;;13.45;71.45;101424.31;5079163;28;20044;-39
2023/03/21 07:13:44;;;;;;;19.13;8.30;;;;;;;13.38;71.77;101423.34;5086362;28;20032;-39
2023/03/21 07:16:10;;;;;;;16.05;8.10;;;;;;;13.46;71.74;101429.56;5084191;28;20448;-39
2023/03/21 07:18:35;;;;;;;16.40;8.57;;;;;;;13.46;71.90;101421.72;5088668;28;20050;-41
2023/03/21 07:21:01;;;;;;;15.95;8.02;;;;;;;13.50;71.96;101413.00;5083915;28;20044;-41
2023/03/21 07:23:27;;;;;;;16.75;8.43;;;;;;;13.57;71.61;101419.19;5078824;28;20036;-38
2023/03/21 07:25:53;;;;;;;16.73;8.05;;;;;;;13.63;71.78;101412.28;5084989;28;20040;-40
2023/03/21 07:28:19;;;;;;;15.18;8.75;;;;;;;13.56;71.87;101420.03;5080956;28;20063;-40
2023/03/21 07:30:50;;;;;;;16.63;8.77;;;;;;;13.60;72.16;101421.84;5084641;28;20032;-40
2023/03/21 07:33:15;;;;;;;18.75;9.10;;;;;;;13.69;71.87;101422.81;5080930;28;20486;-38
2023/03/21 07:35:40;;;;;;;19.60;9.00;;;;;;;13.73;71.92;101424.59;5084661;28;20047;-42
2023/03/21 07:38:06;;;;;;;18.23;9.07;;;;;;;13.69;71.88;101420.19;5083283;28;20032;-41
2023/03/21 07:40:32;;;;;;;17.48;8.30;;;;;;;13.70;71.95;101413.22;5085663;28;20031;-40
2023/03/21 07:42:57;;;;;;;16.73;8.50;;;;;;;13.74;71.84;101414.97;5088270;28;20036;-39
2023/03/21 07:45:25;;;;;;;14.80;7.65;;;;;;;13.77;71.71;101408.03;5084802;28;20106;-39
2023/03/21 07:47:51;;;;;;;17.25;8.25;;;;;;;13.64;71.68;101416.66;5087508;28;20025;-40
2023/03/21 07:50:17;;;;;;;15.50;7.80;;;;;;;13.69;71.75;101408.81;5079958;28;20035;-40
2023/03/21 07:52:42;;;;;;;15.43;7.97;;;;;;;13.79;71.90;101410.66;5081969;28;20036;-39
2023/03/21 07:55:08;;;;;;;15.23;7.78;;;;;;;13.78;71.81;101401.91;5079195;28;20122;-40
2023/03/21 07:57:34;;;;;;;15.48;7.75;;;;;;;13.84;71.69;101408.09;5083990;28;20401;-40
2023/03/21 08:00:00;;;;;;;16.73;7.97;;;;;;;13.96;71.83;101395.09;5066271;28;20453;-36
2023/03/21 08:02:25;;;;;;;17.92;8.00;;;;;;;13.92;71.77;101399.41;5078917;28;20036;-41
2023/03/21 08:04:51;;;;;;;16.15;8.18;;;;;;;14.01;71.59;101396.00;5083027;28;20047;-39
2023/03/21 08:07:16;;;;;;;15.73;7.43;;;;;;;14.17;71.60;101392.59;5079425;28;20511;-39
2023/03/21 08:09:43;;;;;;;15.32;7.35;;;;;;;14.38;70.85;101392.81;5083262;28;20040;-40
2023/03/21 08:12:09;;;;;;;15.50;7.15;;;;;;;14.25;70.38;101383.06;5078200;28;20048;-39
2023/03/21 08:14:35;;;;;;;15.45;7.70;;;;;;;14.49;70.08;101385.88;5061300;28;20063;-40
2023/03/21 08:17:01;;;;;;;13.18;6.90;;;;;;;14.38;69.82;101384.06;5082726;28;20077;-38
2023/03/21 08:19:27;;;;;;;13.48;6.60;;;;;;;14.31;69.77;101387.47;5079704;28;20036;-40
2023/03/21 08:21:52;;;;;;;13.02;6.47;;;;;;;14.52;69.37;101380.63;5083469;28;20046;-39
2023/03/21 08:24:18;;;;;;;12.50;6.65;;;;;;;14.42;68.67;101380.56;5080534;28;20111;-39
2023/03/21 08:26:44;;;;;;;14.13;6.07;;;;;;;14.53;68.57;101381.50;5085391;28;20411;-41
2023/03/21 08:29:11;;;;;;;12.65;6.40;;;;;;;14.58;68.42;101377.13;5082868;28;20383;-40
2023/03/21 08:31:36;;;;;;;11.43;5.65;;;;;;;14.74;67.70;101365.88;5086170;28;20040;-40
2023/03/21 08:34:02;;;;;;;11.80;5.40;;;;;;;14.86;67.55;101363.28;5085198;28;20042;-37
2023/03/21 08:36:29;;;;;;;11.65;5.72;;;;;;;14.95;66.40;101362.44;5063847;28;20062;-40
2023/03/21 08:39:03;;;;;;;12.25;5.78;;;;;;;15.09;66.97;101359.84;5082218;28;20502;-40
2023/03/21 08:41:28;;;;;;;10.80;5.35;;;;;;;15.12;65.36;101359.88;5079016;28;20034;-40
2023/03/21 08:43:53;;;;;;;8.00;4.95;;;;;;;15.34;65.21;101359.91;5083284;28;20119;-42
2023/03/21 08:46:19;;;;;;;11.30;5.43;;;;;;;15.54;65.08;101346.84;5080962;28;20032;-39
2023/03/21 08:48:44;;;;;;;13.52;5.60;;;;;;;15.39;64.20;101357.28;5081751;28;20455;-41
2023/03/21 08:51:09;;;;;;;11.13;5.80;;;;;;;15.40;63.87;101359.03;5078174;28;20344;-41
2023/03/21 08:53:35;;;;;;;12.23;5.47;;;;;;;15.66;64.06;101352.09;5081012;28;20051;-43
2023/03/21 08:56:00;;;;;;;13.25;5.85;;;;;;;15.75;63.26;101349.44;5080888;28;20041;-39
2023/03/21 08:58:26;;;;;;;12.10;5.93;;;;;;;15.69;62.58;101352.09;5077528;28;20040;-39
2023/03/21 09:00:51;;;;;;;13.93;6.00;;;;;;;15.92;62.01;101335.44;5081562;28;20561;-40
2023/03/21 09:03:18;;;;;;;10.55;6.22;;;;;;;15.61;62.34;101331.94;5074404;28;20044;-40
2023/03/21 09:05:44;;;;;;;12.43;6.53;;;;;;;15.14;63.63;101343.22;5063509;28;20032;-42
2023/03/21 09:08:11;;;;;;;12.32;6.82;;;;;;;15.49;63.67;101334.53;5076151;28;20035;-39
2023/03/21 09:10:37;;;;;;;13.70;6.63;;;;;;;15.79;63.66;101327.56;5082628;28;20035;-40
2023/03/21 09:13:02;;;;;;;13.57;6.65;;;;;;;15.88;63.14;101317.91;5081626;28;20058;-39
2023/03/21 09:15:28;;;;;;;12.95;6.90;;;;;;;15.93;62.36;101324.00;5077622;28;20131;-39
2023/03/21 09:17:57;;;;;;;13.18;7.10;;;;;;;15.97;62.56;101320.53;5081592;28;20064;-40
2023/03/21 09:20:29;;;;;;;12.07;6.63;;;;;;;16.18;62.20;101321.34;5076973;28;20031;-40
2023/03/21 09:22:55;;;;;;;13.07;6.97;;;;;;;16.33;61.63;101314.31;5079025;28;20034;-41
2023/03/21 09:25:22;;;;;;;12.68;7.03;;;;;;;16.29;61.29;101313.41;5059046;28;20065;-40
2023/03/21 09:27:48;;;;;;;14.43;7.15;;;;;;;15.97;62.37;101312.63;5080974;28;20382;-39
2023/03/21 09:30:20;;;;;;;15.90;7.78;;;;;;;16.08;61.85;101324.00;5076956;28;20533;-39
2023/03/21 09:32:47;;;;;;;15.65;7.72;;;;;;;16.07;62.18;101320.50;5082873;28;20058;-37
2023/03/21 09:35:14;;;;;;;15.57;8.00;;;;;;;16.21;61.53;101305.56;5080407;28;20475;-39
2023/03/21 09:37:41;;;;;;;16.85;7.95;;;;;;;15.94;61.38;101313.50;5091562;28;20035;-40
2023/03/21 09:40:22;;;;;;;16.20;8.38;;;;;;;16.15;62.00;101308.22;5099643;28;20092;-46
2023/03/21 09:43:09;;;;;;;16.77;8.32;;;;;;;16.09;62.17;101316.13;5102505;28;20458;-39
2023/03/21 09:45:46;;;;;;;14.75;8.48;;;;;;;15.91;63.01;101318.78;5097356;28;20027;-40
2023/03/21 09:48:44;;;;;;;17.73;8.38;;;;;;;16.07;62.69;101322.25;5097162;28;20035;-45
2023/03/21 09:51:17;;;;;;;14.90;8.10;;;;;;;15.82;63.86;101316.16;5096947;28;20420;-39
2023/03/21 09:53:47;;;;;;;18.73;8.95;;;;;;;15.77;63.81;101320.53;5100102;28;20035;-38
2023/03/21 09:56:13;;;;;;;14.85;8.70;;;;;;;16.12;62.91;101320.47;5079178;28;20055;-39
2023/03/21 09:58:45;;;;;;;19.35;9.20;;;;;;;15.91;63.16;101323.16;5098120;28;20047;-38
2023/03/21 10:01:25;;;;;;;16.40;9.05;;;;;;;15.83;63.37;101325.78;5076785;28;20024;-41
2023/03/21 10:03:53;;;;;;;18.05;9.02;;;;;;;16.15;62.46;101315.22;5081279;28;20024;-38
2023/03/21 10:06:20;;;;;;;16.25;8.57;;;;;;;16.17;62.40;101305.56;5080123;28;20036;-39
2023/03/21 10:08:47;;;;;;;15.93;8.77;;;;;;;16.39;62.20;101311.66;5079612;28;20165;-39
2023/03/21 10:11:17;;;;;;;15.88;8.05;;;;;;;16.28;61.74;101301.16;5082469;28;20036;-37
2023/03/21 10:14:06;;;;;;;15.68;8.18;;;;;;;16.10;61.87;101291.53;5079589;28;20039;-39
2023/03/21 10:16:44;;;;;;;15.55;8.50;;;;;;;16.27;61.56;101312.56;5085064;28;20032;-39
2023/03/21 10:19:14;;;;;;;14.77;8.30;;;;;;;16.20;61.31;101324.84;5084550;28;20040;-39
2023/03/21 10:21:42;;;;;;;23.67;8.65;;;;;;;16.08;61.33;101330.16;5088264;28;20146;-40
2023/03/21 10:24:24;;;;;;;17.38;8.20;;;;;;;16.11;61.77;101339.75;5083386;28;20036;-40
2023/03/21 10:26:52;;;;;;;15.25;8.50;;;;;;;15.54;62.04;101335.44;5084897;28;20390;-39
2023/03/21 10:29:22;;;;;;;15.95;8.90;;;;;;;15.82;61.96;101337.19;5080556;28;20028;-39
2023/03/21 10:31:50;;;;;;;18.10;8.20;;;;;;;15.53;63.28;101349.47;5084996;28;20044;-40
2023/03/21 10:34:32;;;;;;;19.20;8.65;;;;;;;15.11;63.94;101345.88;5062038;28;20035;-39
2023/03/21 10:37:01;;;;;;;17.35;8.63;;;;;;;15.27;62.61;101339.75;5084161;28;20458;-40
2023/03/21 10:39:34;;;;;;;15.98;8.75;;;;;;;14.98;63.79;101342.31;5080212;28;20401;-37
2023/03/21 10:42:00;;;;;;;17.63;8.82;;;;;;;14.86;63.09;101334.41;5084664;28;20085;-41
2023/03/21 10:44:32;;;;;;;14.50;8.88;;;;;;;15.46;62.37;101331.91;5080878;28;20119;-39
2023/03/21 10:47:08;;;;;;;15.63;8.18;;;;;;;15.59;62.15;101321.44;5083962;28;20070;-39
2023/03/21 10:49:36;;;;;;;17.52;9.02;;;;;;;15.67;61.20;101314.44;5080944;28;20024;-41
2023/03/21 10:52:06;;;;;;;20.55;9.32;;;;;;;15.14;63.04;101310.84;5083997;28;20127;-41
2023/03/21 10:54:32;;;;;;;18.50;8.85;;;;;;;15.14;62.47;101309.09;5080108;28;20070;-40
2023/03/21 10:57:13;;;;;;;17.48;9.38;;;;;;;15.18;62.63;101305.59;5084734;28;20036;-39
2023/03/21 10:59:43;;;;;;;17.50;10.07;;;;;;;15.43;62.19;101299.47;5081285;28;20093;-40
2023/03/21 11:02:35;;;;;;;18.70;10.60;;;;;;;15.38;62.65;101293.34;5081603;28;20062;-39
2023/03/21 11:05:26;;;;;;;17.48;10.23;;;;;;;15.86;61.85;101296.84;5076026;28;20042;-38
2023/03/21 11:08:01;;;;;;;20.10;11.27;;;;;;;15.63;62.91;101288.13;5080784;28;20371;-39
2023/03/21 11:10:33;;;;;;;20.15;11.00;;;;;;;15.54;63.44;101289.03;5063045;28;20059;-38
2023/03/21 11:13:04;;;;;;;19.05;10.80;;;;;;;15.56;62.89;101297.75;5085085;28;20058;-37
2023/03/21 11:15:36;;;;;;;18.50;11.60;;;;;;;15.18;63.72;101292.47;5081322;28;20032;-40
2023/03/21 11:18:18;;;;;;;20.25;11.43;;;;;;;15.56;62.71;101287.25;5084670;28;20127;-40
2023/03/21 11:20:53;;;;;;;17.60;11.00;;;;;;;15.77;62.00;101291.63;5079667;28;20656;-43
2023/03/21 11:23:19;;;;;;;18.17;11.63;;;;;;;15.48;62.67;101299.50;5080040;28;20071;-41
2023/03/21 11:25:48;;;;;;;17.23;11.13;;;;;;;16.28;61.53;101295.03;5083316;28;20142;-39
2023/03/21 11:28:17;;;;;;;18.27;11.00;;;;;;;15.78;61.78;101303.91;5079739;28;20032;-41